Terminal Aerodrome Forecast
Issued by NWS Sioux Falls, SD

Home | Current Version | Previous Version | Text Only | Print | Product List | Glossary On
Versions: 1 2 3 4 5 6 7 8 9 10 11 12 13 14 15 16 17 18 19 20 21 22 23 24 25 26 27
000
FTUS43 KFSD 271120
TAFSUX
TAF
KSUX 271120Z 2712/2812 35013G22KT 4SM -SN SCT012 OVC035
     FM271300 33011KT P6SM SCT015 OVC040
     FM271700 31010KT P6SM SCT015 SCT100
     FM272100 25005KT P6SM SCT025 SCT050
     FM280100 17004KT P6SM FEW200
      TEMPO 2809/2812 4SM BR=

USA.gov is the U.S. government's official web portal to all federal, state and local government web resources and services.